Time;durP1;ratioP1;P1;durP2;ratioP2;P2;SDS_P1;SDS_P2;PMS_P1;PMS_P2;Temp;Humidity;BMP_temperature;BMP_pressure;BME280_temperature;BME280_humidity;BME280_pressure;Samples;Min_cycle;Max_cycle;Signal;HPM_P1;HPM_P2
2022/03/07 00:00:49;;;;;;;11.90;6.23;;;-2.50;78.00;;;;;;2088810;28;20176;-75
2022/03/07 00:01:50;;;;;;;9.60;6.10;;;-2.50;78.00;;;;;;2097060;28;20223;-72
2022/03/07 00:02:51;;;;;;;8.03;5.43;;;-2.50;78.10;;;;;;2096885;28;20188;-72
2022/03/07 00:03:54;;;;;;;9.23;5.67;;;-2.50;78.20;;;;;;2097135;28;20202;-72
2022/03/07 00:04:54;;;;;;;11.23;6.38;;;-2.50;78.50;;;;;;2096847;28;20202;-72
2022/03/07 00:05:55;;;;;;;10.63;6.73;;;-2.60;79.10;;;;;;2096507;28;20275;-73
2022/03/07 00:06:56;;;;;;;10.43;5.87;;;-2.60;79.10;;;;;;2105340;28;20179;-75
2022/03/07 00:07:57;;;;;;;11.30;6.70;;;-2.60;79.20;;;;;;2097090;28;20673;-74
2022/03/07 00:08:57;;;;;;;9.90;6.07;;;-2.60;79.40;;;;;;2096506;28;20200;-75
2022/03/07 00:09:58;;;;;;;11.20;6.90;;;-2.60;79.50;;;;;;2097006;28;20286;-74
2022/03/07 00:10:59;;;;;;;10.33;6.40;;;-2.70;79.30;;;;;;2096881;28;20218;-74
2022/03/07 00:11:59;;;;;;;9.57;6.60;;;-2.60;79.50;;;;;;2088777;28;20188;-74
2022/03/07 00:13:00;;;;;;;10.73;6.27;;;-2.60;79.40;;;;;;2096780;28;20176;-74
2022/03/07 00:14:01;;;;;;;9.60;6.33;;;-2.70;79.50;;;;;;2097697;28;20174;-74
2022/03/07 00:15:04;;;;;;;11.60;7.10;;;-2.60;79.50;;;;;;2097481;28;20171;-74
2022/03/07 00:16:05;;;;;;;10.38;6.40;;;-2.70;79.60;;;;;;2096565;28;20573;-74
2022/03/07 00:17:05;;;;;;;12.80;6.60;;;-2.70;79.90;;;;;;2097041;28;20627;-74
2022/03/07 00:18:06;;;;;;;8.77;5.63;;;-2.70;80.00;;;;;;2097038;28;20187;-75
2022/03/07 00:19:07;;;;;;;10.20;6.20;;;-2.70;80.00;;;;;;2088919;28;20208;-74
2022/03/07 00:20:09;;;;;;;11.15;6.45;;;-2.70;79.80;;;;;;2088855;28;20182;-75
2022/03/07 00:21:10;;;;;;;11.88;6.55;;;-2.80;80.20;;;;;;2088503;28;20197;-74
2022/03/07 00:22:11;;;;;;;8.97;5.57;;;-2.80;80.60;;;;;;2096987;28;20179;-75
2022/03/07 00:23:11;;;;;;;10.83;6.10;;;-2.70;80.80;;;;;;2097001;28;20179;-74
2022/03/07 00:24:12;;;;;;;10.10;6.03;;;-2.80;80.70;;;;;;2097071;28;20231;-76
2022/03/07 00:25:13;;;;;;;12.10;6.60;;;-2.80;80.80;;;;;;2096839;28;20171;-75
2022/03/07 00:26:14;;;;;;;9.70;6.30;;;-2.80;81.00;;;;;;2096957;28;20190;-75
2022/03/07 00:27:14;;;;;;;9.60;6.30;;;-2.90;82.20;;;;;;2088632;28;20925;-74
2022/03/07 00:28:16;;;;;;;11.97;6.63;;;-3.00;82.50;;;;;;2097037;28;20519;-75
2022/03/07 00:29:17;;;;;;;10.00;6.13;;;-3.00;82.70;;;;;;2105097;28;20211;-75
2022/03/07 00:30:19;;;;;;;9.37;6.13;;;-3.00;82.80;;;;;;2096834;28;20550;-74
2022/03/07 00:31:21;;;;;;;9.38;6.50;;;-3.10;83.60;;;;;;2088713;28;20415;-76
2022/03/07 00:32:22;;;;;;;10.45;6.50;;;-3.10;84.00;;;;;;2097234;28;20768;-74
2022/03/07 00:33:23;;;;;;;13.00;6.73;;;-3.10;84.10;;;;;;2105212;28;20179;-75
2022/03/07 00:34:23;;;;;;;12.10;6.13;;;-3.10;84.30;;;;;;2097460;28;20194;-75
2022/03/07 00:35:24;;;;;;;10.50;6.23;;;-3.20;84.80;;;;;;2096918;28;20198;-75
2022/03/07 00:36:25;;;;;;;12.03;6.37;;;-3.10;84.60;;;;;;2096899;28;20647;-75
2022/03/07 00:37:27;;;;;;;11.43;6.93;;;-3.20;85.50;;;;;;2088370;28;20187;-74
2022/03/07 00:38:27;;;;;;;10.15;6.40;;;-3.30;86.60;;;;;;2088901;28;20224;-74
2022/03/07 00:39:28;;;;;;;10.07;6.70;;;-3.30;86.20;;;;;;2096858;28;20576;-75
2022/03/07 00:40:29;;;;;;;10.67;5.97;;;-3.20;86.20;;;;;;2097498;28;20195;-75
2022/03/07 00:41:29;;;;;;;10.07;5.93;;;-3.20;85.90;;;;;;2093597;28;20187;-75
2022/03/07 00:42:30;;;;;;;11.43;6.23;;;-3.10;86.70;;;;;;2080366;28;20192;-75
2022/03/07 00:43:31;;;;;;;8.93;5.93;;;-3.20;85.80;;;;;;2080290;28;20688;-74
2022/03/07 00:44:32;;;;;;;10.87;6.03;;;-3.20;85.80;;;;;;2088442;28;20988;-75
2022/03/07 00:45:32;;;;;;;11.17;6.43;;;-3.20;85.50;;;;;;2088564;28;20590;-76
2022/03/07 00:46:33;;;;;;;9.43;5.70;;;-3.20;85.50;;;;;;2089021;28;20227;-75
2022/03/07 00:47:34;;;;;;;10.43;6.03;;;-3.20;85.50;;;;;;2088571;28;20184;-75
2022/03/07 00:48:35;;;;;;;9.75;6.50;;;-3.20;85.30;;;;;;2080001;28;20212;-75
2022/03/07 00:49:36;;;;;;;10.60;5.67;;;-3.20;85.20;;;;;;2088625;28;20195;-75
2022/03/07 00:50:42;;;;;;;12.53;6.93;;;-3.20;85.00;;;;;;2088600;28;20176;-77
2022/03/07 00:51:42;;;;;;;10.52;5.85;;;-3.20;85.50;;;;;;2088352;28;20169;-75
2022/03/07 00:52:43;;;;;;;12.07;6.13;;;-3.20;85.30;;;;;;2080876;28;20644;-76
2022/03/07 00:53:44;;;;;;;10.90;6.35;;;-3.30;85.60;;;;;;2080267;28;20184;-75
2022/03/07 00:54:45;;;;;;;9.20;6.30;;;-3.30;85.80;;;;;;2088316;28;20184;-77
2022/03/07 00:55:46;;;;;;;10.57;6.60;;;-3.30;85.60;;;;;;2087876;28;20238;-75
2022/03/07 00:56:47;;;;;;;9.80;6.20;;;-3.30;85.90;;;;;;2080198;28;20742;-75
2022/03/07 00:57:47;;;;;;;10.73;7.13;;;-3.30;86.40;;;;;;2080122;28;20189;-75
2022/03/07 00:58:48;;;;;;;10.27;6.70;;;-3.40;86.50;;;;;;2088264;28;20721;-75
2022/03/07 00:59:49;;;;;;;11.40;6.80;;;-3.40;86.60;;;;;;2088493;28;20286;-75
2022/03/07 01:00:50;;;;;;;10.27;6.37;;;-3.40;86.80;;;;;;2079920;28;20288;-75
2022/03/07 01:01:50;;;;;;;11.70;6.93;;;-3.40;87.10;;;;;;2088458;28;20177;-75
2022/03/07 01:02:51;;;;;;;10.80;6.63;;;-3.40;87.00;;;;;;2088235;28;20258;-76
2022/03/07 01:03:52;;;;;;;16.17;7.13;;;-3.40;87.10;;;;;;2088529;28;20184;-75
2022/03/07 01:04:55;;;;;;;11.20;7.60;;;-3.50;87.20;;;;;;2088830;28;20195;-74
2022/03/07 01:05:55;;;;;;;12.32;7.40;;;-3.50;87.40;;;;;;2088562;28;20658;-75
2022/03/07 01:06:56;;;;;;;9.53;6.50;;;-3.50;87.40;;;;;;2088926;28;20195;-74
2022/03/07 01:07:57;;;;;;;10.57;6.57;;;-3.50;87.70;;;;;;2088347;28;20195;-74
2022/03/07 01:08:57;;;;;;;12.27;6.63;;;-3.50;87.70;;;;;;2080101;28;20207;-75
2022/03/07 01:09:58;;;;;;;11.10;6.37;;;-3.50;88.20;;;;;;2088544;28;20181;-74
2022/03/07 01:10:59;;;;;;;12.90;7.73;;;-3.50;88.50;;;;;;2088954;28;20184;-74
2022/03/07 01:11:59;;;;;;;11.73;7.33;;;-3.60;88.50;;;;;;2088428;28;20249;-75
2022/03/07 01:13:01;;;;;;;11.17;7.00;;;-3.60;88.70;;;;;;2088239;28;20195;-75
2022/03/07 01:14:02;;;;;;;10.82;6.50;;;-3.60;88.80;;;;;;2088501;28;20186;-75
2022/03/07 01:15:04;;;;;;;12.25;6.97;;;-3.60;89.00;;;;;;2088278;28;20184;-79
2022/03/07 01:16:05;;;;;;;11.70;6.50;;;-3.60;89.10;;;;;;2088598;28;20184;-74
2022/03/07 01:17:06;;;;;;;10.77;6.35;;;-3.70;89.10;;;;;;2088190;28;20177;-74
2022/03/07 01:18:07;;;;;;;9.43;6.60;;;-3.70;89.30;;;;;;2080261;28;20183;-75
2022/03/07 01:19:07;;;;;;;12.20;6.73;;;-3.80;89.70;;;;;;2080037;28;20242;-75
2022/03/07 01:20:10;;;;;;;9.73;6.37;;;-3.80;90.10;;;;;;2088519;28;20706;-74
2022/03/07 01:21:12;;;;;;;10.05;7.22;;;-3.70;90.20;;;;;;2088238;28;20188;-74
2022/03/07 01:22:13;;;;;;;13.95;7.80;;;-3.70;90.10;;;;;;2088406;28;20182;-74
2022/03/07 01:23:13;;;;;;;10.83;6.50;;;-3.70;90.10;;;;;;2088890;28;20246;-75
2022/03/07 01:24:14;;;;;;;9.43;5.90;;;-3.80;90.10;;;;;;2088476;28;20176;-74
2022/03/07 01:25:15;;;;;;;11.80;6.83;;;-3.80;90.30;;;;;;2087666;28;20176;-75
2022/03/07 01:26:15;;;;;;;11.77;6.73;;;-3.70;90.20;;;;;;2089120;28;20176;-75
2022/03/07 01:27:16;;;;;;;12.83;6.57;;;-3.70;90.20;;;;;;2088371;28;20191;-74
2022/03/07 01:28:17;;;;;;;10.27;6.47;;;-3.70;90.20;;;;;;2088215;28;20671;-75
2022/03/07 01:29:19;;;;;;;12.43;6.30;;;-3.80;90.30;;;;;;2088359;28;20240;-75
2022/03/07 01:30:20;;;;;;;10.02;5.70;;;-3.80;90.70;;;;;;2088398;28;20176;-74
2022/03/07 01:31:20;;;;;;;10.80;7.33;;;-3.80;90.80;;;;;;2088979;28;20203;-74
2022/03/07 01:32:21;;;;;;;11.97;6.87;;;-3.90;90.70;;;;;;2088797;28;20557;-74
2022/03/07 01:33:21;;;;;;;9.97;6.47;;;-3.90;90.90;;;;;;2088304;28;20234;-74
2022/03/07 01:34:22;;;;;;;11.90;6.67;;;-3.90;90.90;;;;;;2079958;28;20185;-74
2022/03/07 01:35:23;;;;;;;12.47;7.37;;;-4.00;90.90;;;;;;2087680;28;20242;-74
2022/03/07 01:36:24;;;;;;;12.67;7.13;;;-4.00;91.20;;;;;;2088243;28;20168;-74
2022/03/07 01:37:24;;;;;;;11.20;6.57;;;-4.00;91.70;;;;;;2080142;28;20668;-75
2022/03/07 01:38:25;;;;;;;10.60;6.70;;;-4.00;91.30;;;;;;2079868;28;20189;-74
2022/03/07 01:39:26;;;;;;;10.83;6.93;;;-4.10;91.60;;;;;;2088451;28;20316;-75
2022/03/07 01:40:26;;;;;;;12.03;7.27;;;-4.10;91.70;;;;;;2088872;28;20635;-75
2022/03/07 01:41:27;;;;;;;10.87;7.20;;;-4.10;91.80;;;;;;2079993;28;20177;-74
2022/03/07 01:42:28;;;;;;;11.90;7.80;;;-4.10;91.90;;;;;;2071801;28;20256;-74
2022/03/07 01:43:29;;;;;;;11.30;7.33;;;-4.10;91.80;;;;;;2088207;28;20184;-74
2022/03/07 01:44:31;;;;;;;13.73;7.38;;;-4.10;91.80;;;;;;2088227;28;20177;-75
2022/03/07 01:45:32;;;;;;;11.90;6.75;;;-4.10;91.80;;;;;;2079743;28;20181;-74
2022/03/07 01:46:33;;;;;;;12.73;7.93;;;-4.10;92.00;;;;;;2088183;28;20226;-75
2022/03/07 01:47:34;;;;;;;11.60;7.43;;;-4.10;92.20;;;;;;2088942;28;20207;-75
2022/03/07 01:48:36;;;;;;;12.17;6.80;;;-4.10;92.00;;;;;;2088827;28;20200;-76
2022/03/07 01:49:36;;;;;;;12.60;7.38;;;-4.10;91.90;;;;;;2088991;28;20445;-75
2022/03/07 01:50:37;;;;;;;10.47;6.80;;;-4.20;92.00;;;;;;2089179;28;20314;-74
2022/03/07 01:51:41;;;;;;;13.50;6.97;;;-4.20;92.10;;;;;;2088471;28;20180;-74
2022/03/07 01:52:44;;;;;;;11.93;7.13;;;-4.20;92.30;;;;;;2080416;28;20760;-75
2022/03/07 01:53:45;;;;;;;12.18;7.47;;;-4.30;92.50;;;;;;2080393;28;20181;-74
2022/03/07 01:54:46;;;;;;;11.13;6.60;;;-4.30;92.50;;;;;;2079877;28;20244;-74
2022/03/07 01:55:47;;;;;;;11.18;7.20;;;-4.30;92.70;;;;;;2079556;28;20203;-74
2022/03/07 01:56:51;;;;;;;10.70;6.57;;;-4.30;92.80;;;;;;2079982;28;20189;-74
2022/03/07 01:57:52;;;;;;;11.10;6.47;;;-4.40;92.90;;;;;;2080182;28;20177;-74
2022/03/07 01:58:53;;;;;;;12.25;7.10;;;-4.40;93.00;;;;;;2080051;28;20189;-77
2022/03/07 01:59:53;;;;;;;11.77;7.33;;;-4.30;93.10;;;;;;2088207;28;20655;-74
2022/03/07 02:00:54;;;;;;;11.37;7.07;;;-4.30;92.80;;;;;;2088181;28;20242;-74
2022/03/07 02:01:58;;;;;;;12.90;6.93;;;-4.30;92.80;;;;;;2080117;28;20173;-74
2022/03/07 02:03:01;;;;;;;14.05;7.78;;;-4.40;92.90;;;;;;2081929;28;20900;-75
2022/03/07 02:04:01;;;;;;;13.20;7.15;;;-4.40;92.80;;;;;;2089971;28;20234;-74
2022/03/07 02:05:04;;;;;;;12.07;6.57;;;-4.30;92.90;;;;;;2089635;28;20255;-74
2022/03/07 02:06:04;;;;;;;12.40;6.70;;;-4.40;93.00;;;;;;2089435;28;20180;-74
2022/03/07 02:07:06;;;;;;;14.13;7.83;;;-4.40;93.00;;;;;;2089865;28;20591;-74
2022/03/07 02:08:07;;;;;;;12.35;7.53;;;-4.40;92.90;;;;;;2089764;28;20679;-74
2022/03/07 02:09:09;;;;;;;11.25;6.63;;;-4.40;93.10;;;;;;2089651;28;20346;-75
2022/03/07 02:10:11;;;;;;;11.90;7.28;;;-4.40;93.20;;;;;;2081683;28;20184;-74
2022/03/07 02:11:12;;;;;;;10.15;6.57;;;-4.40;93.20;;;;;;2089757;28;20211;-74
2022/03/07 02:12:13;;;;;;;12.32;7.38;;;-4.40;93.10;;;;;;2089925;28;20700;-74
2022/03/07 02:13:17;;;;;;;15.10;7.17;;;-4.50;93.10;;;;;;2089736;28;20176;-74
2022/03/07 02:14:23;;;;;;;11.70;7.60;;;-4.50;93.20;;;;;;2090493;28;20172;-75
2022/03/07 02:15:24;;;;;;;12.50;6.93;;;-4.50;93.50;;;;;;2089025;28;20605;-74
2022/03/07 02:16:25;;;;;;;11.87;7.17;;;-4.50;93.60;;;;;;2081992;28;20272;-73
2022/03/07 02:17:25;;;;;;;14.03;7.20;;;-4.60;93.50;;;;;;2089732;28;20180;-74
2022/03/07 02:18:29;;;;;;;15.50;8.23;;;-4.60;93.90;;;;;;2089898;28;20204;-74
2022/03/07 02:19:30;;;;;;;11.88;6.70;;;-4.60;94.00;;;;;;2081945;28;20219;-74
2022/03/07 02:20:30;;;;;;;13.23;7.70;;;-4.60;93.90;;;;;;2081907;28;20548;-74
2022/03/07 02:21:37;;;;;;;12.67;7.13;;;-4.60;94.00;;;;;;2081303;28;20243;-75
2022/03/07 02:22:37;;;;;;;14.35;7.72;;;-4.50;94.00;;;;;;2082246;28;20175;-74
2022/03/07 02:23:38;;;;;;;12.90;6.70;;;-4.60;93.90;;;;;;2081702;28;20695;-75
2022/03/07 02:24:39;;;;;;;12.60;7.67;;;-4.60;94.10;;;;;;2089733;28;20192;-74
2022/03/07 02:25:39;;;;;;;13.23;8.30;;;-4.60;94.10;;;;;;2089795;28;20181;-75
2022/03/07 02:26:41;;;;;;;15.07;7.60;;;-4.60;94.10;;;;;;2097722;28;20880;-74
2022/03/07 02:27:41;;;;;;;14.18;7.03;;;-4.60;94.10;;;;;;2097500;28;20334;-75
2022/03/07 02:28:45;;;;;;;11.27;6.80;;;-4.60;93.80;;;;;;2098421;28;20587;-75
2022/03/07 02:29:49;;;;;;;12.70;7.43;;;-4.60;93.80;;;;;;2098523;28;20187;-75
2022/03/07 02:30:51;;;;;;;14.35;6.70;;;-4.60;93.80;;;;;;2097848;28;20183;-76
2022/03/07 02:31:52;;;;;;;11.40;6.90;;;-4.60;93.90;;;;;;2089997;28;20678;-74
2022/03/07 02:32:53;;;;;;;12.27;7.10;;;-4.60;94.10;;;;;;2090044;28;20195;-75
2022/03/07 02:33:53;;;;;;;11.07;6.63;;;-4.60;93.90;;;;;;2088956;28;20557;-75
2022/03/07 02:34:54;;;;;;;11.30;7.17;;;-4.60;94.00;;;;;;2097757;28;20179;-74
2022/03/07 02:35:56;;;;;;;12.77;6.53;;;-4.60;94.00;;;;;;2089568;28;20250;-74
2022/03/07 02:36:57;;;;;;;13.43;7.38;;;-4.70;93.90;;;;;;2082044;28;20177;-74
2022/03/07 02:37:57;;;;;;;13.07;8.07;;;-4.70;94.10;;;;;;2090046;28;20250;-76
2022/03/07 02:38:58;;;;;;;10.70;7.23;;;-4.70;94.30;;;;;;2089936;28;20192;-74
2022/03/07 02:39:59;;;;;;;12.23;6.90;;;-4.70;94.20;;;;;;2090138;28;20196;-74
2022/03/07 02:41:00;;;;;;;11.33;6.80;;;-4.70;94.30;;;;;;2098369;28;20176;-76
2022/03/07 02:42:01;;;;;;;13.93;7.28;;;-4.80;94.30;;;;;;2098167;28;20183;-74
2022/03/07 02:43:01;;;;;;;13.40;7.10;;;-4.80;95.00;;;;;;2098199;28;20183;-76
2022/03/07 02:44:02;;;;;;;12.43;6.80;;;-4.80;94.50;;;;;;2098168;28;20660;-75
2022/03/07 02:45:05;;;;;;;13.03;7.27;;;-4.80;94.70;;;;;;2089790;28;20180;-77
2022/03/07 02:46:05;;;;;;;15.40;6.78;;;-4.80;95.00;;;;;;2089606;28;20211;-74
2022/03/07 02:47:06;;;;;;;11.07;6.53;;;-4.90;94.90;;;;;;2098193;28;20219;-74
2022/03/07 02:48:07;;;;;;;14.70;7.50;;;-4.80;95.00;;;;;;2098368;28;20558;-74
2022/03/07 02:49:08;;;;;;;13.40;7.57;;;-4.90;94.90;;;;;;2098254;28;20697;-75
2022/03/07 02:50:09;;;;;;;14.60;7.88;;;-4.80;94.90;;;;;;2098493;28;20175;-75
2022/03/07 02:51:09;;;;;;;12.73;7.57;;;-4.80;94.90;;;;;;2098167;28;20172;-75
2022/03/07 02:52:10;;;;;;;11.93;7.77;;;-4.90;95.00;;;;;;2098871;28;20180;-74
2022/03/07 02:53:12;;;;;;;12.67;7.60;;;-4.90;95.10;;;;;;2098711;28;20180;-74
2022/03/07 02:54:13;;;;;;;15.77;7.90;;;-4.90;95.10;;;;;;2098138;28;20517;-75
2022/03/07 02:55:13;;;;;;;14.23;8.40;;;-4.90;95.30;;;;;;2089249;28;20276;-75
2022/03/07 02:56:14;;;;;;;12.13;7.00;;;-5.00;95.50;;;;;;2098304;28;20183;-75
2022/03/07 02:57:15;;;;;;;11.93;6.80;;;-5.00;95.60;;;;;;2097876;28;20194;-74
2022/03/07 02:58:16;;;;;;;12.17;6.47;;;-5.00;95.90;;;;;;2089785;28;20204;-76
2022/03/07 02:59:17;;;;;;;12.77;7.17;;;-5.00;95.50;;;;;;2089614;28;20187;-74
2022/03/07 03:00:17;;;;;;;13.27;6.97;;;-5.00;95.60;;;;;;2097996;28;20175;-74
2022/03/07 03:01:18;;;;;;;10.77;7.37;;;-5.00;95.60;;;;;;2097828;28;20184;-75
2022/03/07 03:02:21;;;;;;;11.57;6.82;;;-4.90;95.50;;;;;;2089716;28;20425;-73
2022/03/07 03:03:21;;;;;;;12.85;7.55;;;-4.90;95.50;;;;;;2089854;28;20196;-74
2022/03/07 03:04:22;;;;;;;12.97;7.03;;;-5.00;95.50;;;;;;2098031;28;20297;-74
2022/03/07 03:05:24;;;;;;;13.47;6.13;;;-5.00;95.80;;;;;;2098002;28;20183;-75
2022/03/07 03:06:24;;;;;;;12.73;7.30;;;-5.00;95.80;;;;;;2098705;28;20195;-75
2022/03/07 03:07:25;;;;;;;13.03;7.23;;;-5.00;95.50;;;;;;2098485;28;20191;-74
2022/03/07 03:08:26;;;;;;;16.20;7.60;;;-5.00;95.70;;;;;;2098448;28;20202;-74
2022/03/07 03:09:27;;;;;;;11.38;6.63;;;-5.00;95.70;;;;;;2098382;28;20219;-74
2022/03/07 03:10:27;;;;;;;11.67;6.63;;;-5.00;95.80;;;;;;2098055;28;20221;-74
2022/03/07 03:11:28;;;;;;;14.17;7.50;;;-5.00;95.70;;;;;;2089813;28;20188;-74
2022/03/07 03:12:29;;;;;;;12.67;7.27;;;-5.00;95.60;;;;;;2089687;28;20185;-74
2022/03/07 03:13:30;;;;;;;12.10;6.80;;;-5.00;95.60;;;;;;2097888;28;20726;-74
2022/03/07 03:14:31;;;;;;;12.60;7.03;;;-5.10;95.70;;;;;;2097351;28;20528;-73
2022/03/07 03:15:31;;;;;;;12.27;7.43;;;-5.10;95.90;;;;;;2088979;28;20437;-74
2022/03/07 03:16:33;;;;;;;11.73;6.73;;;-5.10;96.20;;;;;;2097874;28;20438;-74
2022/03/07 03:17:34;;;;;;;14.00;8.07;;;-5.10;96.40;;;;;;2097100;28;20646;-73
2022/03/07 03:18:34;;;;;;;12.50;6.80;;;-5.10;96.30;;;;;;2098613;28;20231;-74
2022/03/07 03:19:35;;;;;;;13.33;7.17;;;-5.10;96.20;;;;;;2106317;28;20186;-74
2022/03/07 03:20:36;;;;;;;11.87;7.03;;;-5.10;96.20;;;;;;2097888;28;20245;-75
2022/03/07 03:21:37;;;;;;;11.05;7.57;;;-5.10;96.20;;;;;;2098115;28;20275;-76
2022/03/07 03:22:39;;;;;;;11.53;6.40;;;-5.10;96.30;;;;;;2098522;28;20576;-74
2022/03/07 03:23:40;;;;;;;14.57;8.02;;;-5.10;96.30;;;;;;2098031;28;20186;-74
2022/03/07 03:24:40;;;;;;;11.10;7.17;;;-5.10;96.40;;;;;;2097869;28;20263;-74
2022/03/07 03:25:41;;;;;;;12.80;7.40;;;-5.20;96.60;;;;;;2097988;28;20176;-75
2022/03/07 03:26:42;;;;;;;11.13;7.00;;;-5.20;96.70;;;;;;2098426;28;20719;-74
2022/03/07 03:27:43;;;;;;;13.87;7.40;;;-5.10;96.60;;;;;;2098471;28;20180;-74
2022/03/07 03:28:43;;;;;;;11.67;7.03;;;-5.20;96.60;;;;;;2097897;28;20187;-74
2022/03/07 03:29:44;;;;;;;12.80;7.17;;;-5.20;96.70;;;;;;2089812;28;20458;-74
2022/03/07 03:30:45;;;;;;;12.93;7.17;;;-5.20;96.90;;;;;;2097901;28;20246;-75
2022/03/07 03:31:45;;;;;;;16.33;9.27;;;-5.20;96.80;;;;;;2098687;28;20202;-74
2022/03/07 03:32:46;;;;;;;14.57;8.10;;;-5.20;97.00;;;;;;2105915;28;20331;-74
2022/03/07 03:33:48;;;;;;;12.07;7.50;;;-5.20;97.10;;;;;;2097979;28;20255;-76
2022/03/07 03:34:48;;;;;;;12.55;7.25;;;-5.20;96.90;;;;;;2097774;28;20179;-74
2022/03/07 03:35:49;;;;;;;16.00;7.80;;;-5.30;97.10;;;;;;2105809;28;20205;-75
2022/03/07 03:36:50;;;;;;;15.43;7.77;;;-5.30;97.40;;;;;;2097782;28;20238;-74
2022/03/07 03:37:51;;;;;;;11.90;7.30;;;-5.20;97.50;;;;;;2098071;28;20175;-73
2022/03/07 03:38:52;;;;;;;14.47;7.27;;;-5.20;97.50;;;;;;2098006;28;20670;-74
2022/03/07 03:39:54;;;;;;;15.57;7.83;;;-5.20;97.40;;;;;;2097781;28;20426;-74
2022/03/07 03:40:54;;;;;;;14.68;8.82;;;-5.20;97.20;;;;;;2097938;28;20650;-73
2022/03/07 03:41:55;;;;;;;14.50;8.37;;;-5.20;97.20;;;;;;2097904;28;20188;-74
2022/03/07 03:42:56;;;;;;;14.73;8.07;;;-5.20;97.20;;;;;;2097688;28;20180;-74
2022/03/07 03:43:56;;;;;;;12.57;7.77;;;-5.20;97.70;;;;;;2097891;28;20180;-74
2022/03/07 03:44:57;;;;;;;14.80;8.30;;;-5.20;97.30;;;;;;2098418;28;20179;-73
2022/03/07 03:45:58;;;;;;;13.70;7.07;;;-5.30;97.50;;;;;;2097902;28;20180;-73
2022/03/07 03:46:58;;;;;;;14.23;8.10;;;-5.30;97.40;;;;;;2098351;28;20613;-74
2022/03/07 03:47:59;;;;;;;13.10;7.40;;;-5.30;97.70;;;;;;2097777;28;20234;-73
2022/03/07 03:49:00;;;;;;;13.98;6.95;;;-5.30;97.80;;;;;;2089388;28;20218;-74
2022/03/07 03:50:02;;;;;;;14.27;7.57;;;-5.30;97.70;;;;;;2089544;28;20480;-74
2022/03/07 03:51:03;;;;;;;14.98;8.02;;;-5.30;98.00;;;;;;2089566;28;20213;-74
2022/03/07 03:52:04;;;;;;;10.93;6.73;;;-5.40;98.30;;;;;;2097841;28;20179;-74
2022/03/07 03:53:05;;;;;;;12.93;7.57;;;-5.40;98.60;;;;;;2097727;28;20187;-74
2022/03/07 03:54:05;;;;;;;15.13;8.20;;;-5.40;98.50;;;;;;2097654;28;20273;-74
2022/03/07 03:55:09;;;;;;;13.83;7.77;;;-5.40;98.30;;;;;;2097522;28;20179;-74
2022/03/07 03:56:10;;;;;;;13.07;7.53;;;-5.40;98.40;;;;;;2097705;28;20701;-75
2022/03/07 03:57:10;;;;;;;13.83;8.20;;;-5.30;98.30;;;;;;2098399;28;20191;-74
2022/03/07 03:58:11;;;;;;;14.37;8.10;;;-5.30;97.90;;;;;;2097504;28;20186;-74
2022/03/07 03:59:11;;;;;;;13.20;7.60;;;-5.30;98.00;;;;;;2097828;28;20175;-74
2022/03/07 04:00:16;;;;;;;13.67;8.17;;;-5.30;98.00;;;;;;2097531;28;20175;-73
2022/03/07 04:01:17;;;;;;;13.90;7.50;;;-5.30;97.90;;;;;;2097925;28;20182;-74
2022/03/07 04:02:18;;;;;;;14.53;8.20;;;-5.30;97.90;;;;;;2097759;28;20179;-74
2022/03/07 04:03:19;;;;;;;12.90;6.63;;;-5.30;98.10;;;;;;2097662;28;20183;-74
2022/03/07 04:04:19;;;;;;;15.47;7.47;;;-5.40;98.10;;;;;;2098246;28;20188;-73
2022/03/07 04:05:20;;;;;;;13.90;8.17;;;-5.40;98.10;;;;;;2105416;28;20191;-74
2022/03/07 04:06:21;;;;;;;12.07;8.40;;;-5.40;98.20;;;;;;2097549;28;20241;-74
2022/03/07 04:07:22;;;;;;;11.27;6.57;;;-5.40;98.00;;;;;;2097226;28;20226;-73
2022/03/07 04:08:22;;;;;;;13.52;7.00;;;-5.50;98.20;;;;;;2096933;28;20583;-73
2022/03/07 04:09:23;;;;;;;11.87;7.40;;;-5.50;98.60;;;;;;2097156;28;20219;-74
2022/03/07 04:10:24;;;;;;;16.93;7.93;;;-5.50;98.90;;;;;;2097609;28;20179;-75
2022/03/07 04:11:24;;;;;;;12.73;7.20;;;-5.50;99.10;;;;;;2097100;28;20642;-73
2022/03/07 04:12:25;;;;;;;13.47;7.43;;;-5.60;99.40;;;;;;2096910;28;20179;-74
2022/03/07 04:13:26;;;;;;;14.53;7.33;;;-5.60;99.50;;;;;;2097762;28;20194;-75
2022/03/07 04:14:27;;;;;;;14.67;8.40;;;-5.60;99.30;;;;;;2097610;28;20195;-73
2022/03/07 04:15:27;;;;;;;13.85;8.43;;;-5.60;99.30;;;;;;2097090;28;20186;-74
2022/03/07 04:16:28;;;;;;;12.87;6.70;;;-5.60;99.10;;;;;;2097056;28;20210;-74
2022/03/07 04:17:29;;;;;;;14.57;8.37;;;-5.50;99.10;;;;;;2097046;28;20262;-73
2022/03/07 04:18:29;;;;;;;13.70;8.57;;;-5.60;99.00;;;;;;2097485;28;20563;-74
2022/03/07 04:19:30;;;;;;;11.53;7.30;;;-5.60;99.10;;;;;;2097627;28;20195;-74
2022/03/07 04:20:31;;;;;;;18.83;8.47;;;-5.50;99.00;;;;;;2097491;28;20188;-74
2022/03/07 04:21:32;;;;;;;14.40;7.40;;;-5.60;98.90;;;;;;2097064;28;20210;-74
2022/03/07 04:22:35;;;;;;;14.55;8.23;;;-5.60;99.20;;;;;;2096739;28;20222;-73
2022/03/07 04:23:35;;;;;;;13.82;7.40;;;-5.60;99.40;;;;;;2096995;28;20191;-74
2022/03/07 04:24:36;;;;;;;12.07;7.27;;;-5.60;99.20;;;;;;2096914;28;20539;-75
2022/03/07 04:25:37;;;;;;;13.83;6.97;;;-5.60;99.10;;;;;;2096450;28;20187;-74
2022/03/07 04:26:39;;;;;;;13.30;8.00;;;-5.60;99.10;;;;;;2097070;28;20186;-73
2022/03/07 04:27:41;;;;;;;14.10;7.80;;;-5.60;99.30;;;;;;2097571;28;20265;-75
2022/03/07 04:28:42;;;;;;;15.38;7.75;;;-5.60;99.10;;;;;;2096614;28;20627;-74
2022/03/07 04:29:42;;;;;;;14.13;8.37;;;-5.70;99.50;;;;;;2097003;28;20178;-74
2022/03/07 04:30:43;;;;;;;14.80;7.73;;;-5.60;99.50;;;;;;2097413;28;20432;-74
2022/03/07 04:31:44;;;;;;;15.63;8.33;;;-5.70;99.60;;;;;;2088609;28;20183;-74
2022/03/07 04:32:45;;;;;;;14.80;9.23;;;-5.60;99.60;;;;;;2088697;28;20417;-74
2022/03/07 04:33:46;;;;;;;14.73;8.80;;;-5.50;99.50;;;;;;2097427;28;20190;-74
2022/03/07 04:34:47;;;;;;;16.27;9.67;;;-5.50;99.90;;;;;;2094112;28;20185;-74
2022/03/07 04:35:47;;;;;;;16.30;9.20;;;-5.60;99.20;;;;;;2097011;28;20855;-74
2022/03/07 04:36:48;;;;;;;15.40;8.60;;;-5.60;99.40;;;;;;2096817;28;20391;-75
2022/03/07 04:37:49;;;;;;;15.67;8.43;;;-5.60;99.30;;;;;;2096449;28;20183;-74
2022/03/07 04:38:49;;;;;;;14.53;8.37;;;-5.60;99.10;;;;;;2097472;28;20718;-73
2022/03/07 04:39:50;;;;;;;14.37;8.97;;;-5.60;99.20;;;;;;2096656;28;20653;-73
2022/03/07 04:40:51;;;;;;;15.80;8.40;;;-5.60;99.20;;;;;;2096883;28;20673;-74
2022/03/07 04:41:51;;;;;;;16.30;9.13;;;-5.60;99.10;;;;;;2096719;28;20182;-74
2022/03/07 04:42:52;;;;;;;16.60;9.67;;;-5.60;99.40;;;;;;2088582;28;20190;-73
2022/03/07 04:43:53;;;;;;;17.30;9.23;;;-5.60;99.50;;;;;;2096709;28;20668;-74
2022/03/07 04:44:54;;;;;;;14.85;8.93;;;-5.70;99.70;;;;;;2097430;28;20175;-74
2022/03/07 04:45:54;;;;;;;14.63;8.27;;;-5.60;99.90;;;;;;2096121;28;20177;-75
2022/03/07 04:46:55;;;;;;;12.03;7.90;;;-5.60;99.60;;;;;;2096874;28;20179;-74
2022/03/07 04:47:56;;;;;;;15.87;8.63;;;-5.70;99.60;;;;;;2097318;28;20660;-74
2022/03/07 04:48:57;;;;;;;15.17;9.00;;;-5.70;99.50;;;;;;2097007;28;20594;-75
2022/03/07 04:49:57;;;;;;;14.40;7.97;;;-5.70;99.70;;;;;;2096541;28;20183;-74
2022/03/07 04:50:58;;;;;;;15.77;8.97;;;-5.70;99.60;;;;;;2105155;28;20238;-74
2022/03/07 04:51:58;;;;;;;12.87;7.27;;;-5.70;99.60;;;;;;2096648;28;20189;-74
2022/03/07 04:52:59;;;;;;;15.33;8.70;;;-5.70;99.60;;;;;;2096750;28;20685;-74
2022/03/07 04:54:00;;;;;;;16.90;8.77;;;-5.70;99.80;;;;;;2096656;28;20534;-73
2022/03/07 04:55:00;;;;;;;15.47;8.77;;;-5.70;99.90;;;;;;2088675;28;20636;-73
2022/03/07 04:56:02;;;;;;;14.50;8.67;;;-5.80;99.90;;;;;;2096610;28;20458;-75
2022/03/07 04:57:03;;;;;;;14.65;8.00;;;-5.80;99.90;;;;;;2097330;28;20176;-74
2022/03/07 04:58:04;;;;;;;15.75;9.13;;;-5.80;99.90;;;;;;2096946;28;20265;-74
2022/03/07 04:59:05;;;;;;;19.73;8.73;;;-5.70;99.90;;;;;;2097197;28;20182;-73
2022/03/07 05:00:08;;;;;;;15.35;8.95;;;-5.70;99.90;;;;;;2096867;28;20176;-73
2022/03/07 05:01:09;;;;;;;16.58;9.00;;;-5.80;99.90;;;;;;2104984;28;20217;-73
2022/03/07 05:02:10;;;;;;;15.07;7.88;;;-5.80;99.90;;;;;;2097328;28;20186;-74
2022/03/07 05:03:11;;;;;;;17.20;8.90;;;-5.80;99.90;;;;;;2088911;28;20187;-75
2022/03/07 05:04:12;;;;;;;17.50;9.27;;;-5.80;99.90;;;;;;2096867;28;20187;-74
2022/03/07 05:05:13;;;;;;;13.53;8.20;;;-5.80;99.90;;;;;;2096729;28;20515;-74
2022/03/07 05:06:14;;;;;;;15.10;8.85;;;-5.80;99.90;;;;;;2088967;28;20536;-74
2022/03/07 05:07:15;;;;;;;14.80;8.60;;;-5.80;99.90;;;;;;2097329;28;20210;-74
2022/03/07 05:08:16;;;;;;;19.40;9.17;;;-5.80;99.90;;;;;;2097623;28;20566;-74
2022/03/07 05:09:17;;;;;;;13.93;8.45;;;-5.70;99.90;;;;;;2097400;28;20210;-73
2022/03/07 05:10:19;;;;;;;14.63;7.93;;;-5.80;99.90;;;;;;2097092;28;20186;-75
2022/03/07 05:11:19;;;;;;;17.10;8.93;;;-5.70;99.90;;;;;;2097020;28;20186;-74
2022/03/07 05:12:20;;;;;;;12.87;8.43;;;-5.80;99.90;;;;;;2096793;28;20187;-73
2022/03/07 05:13:21;;;;;;;14.77;9.47;;;-5.80;99.90;;;;;;2096990;28;20183;-73
2022/03/07 05:14:21;;;;;;;14.73;8.97;;;-5.80;99.90;;;;;;2096889;28;20246;-75